createdAt,value
2023-01-25T00:02:24.290Z,99456.13
2023-01-25T00:04:52.430Z,99458.09
2023-01-25T00:07:22.883Z,99460.06
2023-01-25T00:09:50.945Z,99451.91
2023-01-25T00:12:22.325Z,99451.13
2023-01-25T00:14:50.438Z,99446.75
2023-01-25T00:17:19.925Z,99446.66
2023-01-25T00:19:48.036Z,99454.38
2023-01-25T00:22:17.959Z,99449.66
2023-01-25T00:24:46.371Z,99440.94
2023-01-25T00:27:14.393Z,99439.91
2023-01-25T00:29:42.804Z,99439.22
2023-01-25T00:32:42.471Z,99433.13
2023-01-25T00:35:13.295Z,99431.34
2023-01-25T00:37:43.655Z,99426.03
2023-01-25T00:40:13.116Z,99429.00
2023-01-25T00:42:41.808Z,99422.63
2023-01-25T00:45:12.179Z,99424.66
2023-01-25T00:47:42.054Z,99415.03
2023-01-25T00:50:11.192Z,99411.75
2023-01-25T00:52:39.229Z,99421.88
2023-01-25T00:55:08.452Z,99415.19
2023-01-25T00:57:36.901Z,99409.59
2023-01-25T01:00:06.279Z,99409.59
2023-01-25T01:02:34.415Z,99405.72
2023-01-25T01:05:04.124Z,99410.09
2023-01-25T01:07:32.879Z,99410.41
2023-01-25T01:10:01.487Z,99411.28
2023-01-25T01:12:29.650Z,99407.47
2023-01-25T01:14:57.808Z,99405.47
2023-01-25T01:17:26.108Z,99413.09
2023-01-25T01:19:54.100Z,99407.63
2023-01-25T01:22:23.626Z,99403.97
2023-01-25T01:24:51.660Z,99407.47
2023-01-25T01:27:20.154Z,99397.84
2023-01-25T01:29:48.209Z,99410.84
2023-01-25T01:32:16.555Z,99405.66
2023-01-25T01:34:44.616Z,99410.25
2023-01-25T01:37:12.860Z,99411.03
2023-01-25T01:39:42.262Z,99409.97
2023-01-25T01:42:10.332Z,99407.75
2023-01-25T01:44:46.917Z,99417.31
2023-01-25T01:47:16.873Z,99414.00
2023-01-25T01:49:45.125Z,99419.63
2023-01-25T01:52:14.125Z,99419.88
2023-01-25T01:54:44.275Z,99412.09
2023-01-25T01:57:14.462Z,99411.88
2023-01-25T01:59:43.944Z,99414.56
2023-01-25T02:02:12.116Z,99410.56
2023-01-25T02:04:40.091Z,99407.09
2023-01-25T02:07:11.281Z,99411.59
2023-01-25T02:09:39.302Z,99410.97
2023-01-25T02:12:08.925Z,99426.84
2023-01-25T02:14:36.959Z,99418.03
2023-01-25T02:17:05.129Z,99419.03
2023-01-25T02:19:42.009Z,99422.88
2023-01-25T02:22:11.095Z,99427.97
2023-01-25T02:24:39.111Z,99419.94
2023-01-25T02:27:08.586Z,99421.81
2023-01-25T02:29:36.598Z,99410.16
2023-01-25T02:32:05.212Z,99412.03
2023-01-25T02:34:33.371Z,99404.94
2023-01-25T02:37:01.617Z,99406.88
2023-01-25T02:39:29.594Z,99410.09
2023-01-25T02:41:57.671Z,99403.19
2023-01-25T02:44:27.778Z,99396.84
2023-01-25T02:46:55.781Z,99396.09
2023-01-25T02:49:23.914Z,99396.78
2023-01-25T02:51:55.891Z,99391.06
2023-01-25T02:54:24.315Z,99386.56
2023-01-25T02:56:53.579Z,99386.38
2023-01-25T02:59:22.147Z,99390.78
2023-01-25T03:01:51.735Z,99389.47
2023-01-25T03:04:19.910Z,99396.66
2023-01-25T03:06:48.142Z,99383.75
2023-01-25T03:09:20.061Z,99375.84
2023-01-25T03:11:48.172Z,99382.59
2023-01-25T03:14:16.440Z,99380.91
2023-01-25T03:16:44.410Z,99382.78
2023-01-25T03:19:16.693Z,99384.13
2023-01-25T03:21:44.686Z,99382.28
2023-01-25T03:24:12.803Z,99387.72
2023-01-25T03:26:54.641Z,99386.75
2023-01-25T03:29:22.743Z,99384.81
2023-01-25T03:31:51.141Z,99380.44
2023-01-25T03:34:20.985Z,99376.50
2023-01-25T03:36:49.344Z,99385.91
2023-01-25T03:39:17.797Z,99384.25
2023-01-25T03:41:45.827Z,99383.50
2023-01-25T03:44:14.043Z,99385.16
2023-01-25T03:46:42.438Z,99376.34
2023-01-25T03:49:10.951Z,99371.88
2023-01-25T03:51:40.336Z,99370.88
2023-01-25T03:54:10.271Z,99373.66
2023-01-25T03:56:38.512Z,99363.19
2023-01-25T03:59:06.902Z,99359.69
2023-01-25T04:01:34.998Z,99360.47
2023-01-25T04:04:03.197Z,99350.00
2023-01-25T04:06:31.279Z,99349.06
2023-01-25T04:09:01.143Z,99346.50
2023-01-25T04:11:29.145Z,99334.44
2023-01-25T04:13:57.141Z,99337.78
2023-01-25T04:16:25.197Z,99324.00
2023-01-25T04:18:53.653Z,99324.66
2023-01-25T04:21:21.656Z,99321.13
2023-01-25T04:23:52.772Z,99316.53
2023-01-25T04:26:22.126Z,99314.00
2023-01-25T04:28:50.615Z,99321.97
2023-01-25T04:31:18.811Z,99306.94
2023-01-25T04:33:46.976Z,99305.97
2023-01-25T04:36:15.423Z,99304.78
2023-01-25T04:38:43.444Z,99301.66
2023-01-25T04:41:11.540Z,99302.63
2023-01-25T04:43:41.023Z,99303.56
2023-01-25T04:46:10.270Z,99298.38
2023-01-25T04:48:38.314Z,99286.34
2023-01-25T04:51:06.560Z,99297.69
2023-01-25T04:53:35.113Z,99286.25
2023-01-25T04:56:03.325Z,99289.81
2023-01-25T04:58:31.530Z,99287.94
2023-01-25T05:01:03.243Z,99288.63
2023-01-25T05:03:33.549Z,99295.66
2023-01-25T05:06:01.898Z,99280.41
2023-01-25T05:08:29.904Z,99290.72
2023-01-25T05:10:58.007Z,99289.25
2023-01-25T05:13:25.941Z,99286.44
2023-01-25T05:15:53.959Z,99289.03
2023-01-25T05:18:23.462Z,99286.63
2023-01-25T05:20:55.745Z,99286.75
2023-01-25T05:23:23.790Z,99285.66
2023-01-25T05:26:23.656Z,99279.44
2023-01-25T05:28:51.634Z,99287.16
2023-01-25T05:31:19.740Z,99282.66
2023-01-25T05:33:49.209Z,99276.91
2023-01-25T05:36:17.272Z,99278.41
2023-01-25T05:38:45.269Z,99275.13
2023-01-25T05:41:13.252Z,99281.28
2023-01-25T05:43:41.184Z,99284.66
2023-01-25T05:46:09.735Z,99279.94
2023-01-25T05:48:37.952Z,99285.25
2023-01-25T05:51:07.648Z,99293.09
2023-01-25T05:53:35.759Z,99285.56
2023-01-25T05:56:07.096Z,99282.78
2023-01-25T05:58:35.199Z,99281.03
2023-01-25T06:01:03.253Z,99287.13
2023-01-25T06:03:31.928Z,99285.38
2023-01-25T06:06:03.036Z,99286.03
2023-01-25T06:08:32.585Z,99280.88
2023-01-25T06:11:01.064Z,99279.22
2023-01-25T06:13:30.069Z,99284.06
2023-01-25T06:15:58.245Z,99275.91
2023-01-25T06:18:26.353Z,99277.91
2023-01-25T06:20:57.724Z,99278.13
2023-01-25T06:23:26.497Z,99277.09
2023-01-25T06:26:00.822Z,99274.53
2023-01-25T06:28:34.285Z,99271.16
2023-01-25T06:31:07.309Z,99267.22
2023-01-25T06:33:36.796Z,99267.03
2023-01-25T06:36:05.681Z,99268.84
2023-01-25T06:38:33.711Z,99254.78
2023-01-25T06:41:03.943Z,99262.13
2023-01-25T06:43:33.963Z,99263.03
2023-01-25T06:46:03.362Z,99264.72
2023-01-25T06:48:32.886Z,99263.69
2023-01-25T06:51:02.039Z,99264.19
2023-01-25T06:53:30.931Z,99259.53
2023-01-25T06:56:00.894Z,99271.88
2023-01-25T06:58:30.814Z,99260.81
2023-01-25T07:01:01.596Z,99269.50
2023-01-25T07:03:30.019Z,99271.19
2023-01-25T07:06:01.584Z,99266.34
2023-01-25T07:08:29.652Z,99275.25
2023-01-25T07:10:57.964Z,99275.31
2023-01-25T07:13:26.510Z,99275.25
2023-01-25T07:15:56.854Z,99276.19
2023-01-25T07:18:24.932Z,99271.75
2023-01-25T07:20:53.573Z,99269.81
2023-01-25T07:23:21.603Z,99261.97
2023-01-25T07:25:51.755Z,99259.59
2023-01-25T07:28:19.767Z,99255.78
2023-01-25T07:30:49.282Z,99259.97
2023-01-25T07:33:18.812Z,99254.16
2023-01-25T07:35:46.813Z,99247.19
2023-01-25T07:38:15.409Z,99249.91
2023-01-25T07:40:43.438Z,99240.81
2023-01-25T07:43:11.432Z,99251.97
2023-01-25T07:45:39.945Z,99247.31
2023-01-25T07:48:13.050Z,99245.88
2023-01-25T07:50:46.528Z,99244.38
2023-01-25T07:53:14.568Z,99247.34
2023-01-25T07:55:42.547Z,99238.19
2023-01-25T07:58:12.182Z,99239.38
2023-01-25T08:00:40.462Z,99237.66
2023-01-25T08:03:10.279Z,99233.47
2023-01-25T08:05:39.553Z,99232.06
2023-01-25T08:08:09.702Z,99235.56
2023-01-25T08:10:37.835Z,99236.56
2023-01-25T08:13:07.197Z,99238.75
2023-01-25T08:15:39.533Z,99248.22
2023-01-25T08:18:07.645Z,99245.53
2023-01-25T08:20:35.695Z,99244.59
2023-01-25T08:23:04.539Z,99237.34
2023-01-25T08:25:40.734Z,99230.88
2023-01-25T08:28:11.571Z,99240.56
2023-01-25T08:30:48.672Z,99232.03
2023-01-25T08:33:23.752Z,99224.72
2023-01-25T08:35:56.765Z,99219.25
2023-01-25T08:38:25.349Z,99218.81
2023-01-25T08:40:54.748Z,99217.84
2023-01-25T08:43:22.859Z,99223.09
2023-01-25T08:45:58.648Z,99225.25
2023-01-25T08:48:26.616Z,99228.88
2023-01-25T08:50:54.678Z,99220.13
2023-01-25T08:53:23.038Z,99218.06
2023-01-25T08:55:51.230Z,99217.50
2023-01-25T08:58:22.695Z,99208.63
2023-01-25T09:00:51.487Z,99203.94
2023-01-25T09:03:30.108Z,99199.13
2023-01-25T09:05:59.216Z,99203.34
2023-01-25T09:08:28.647Z,99206.06
2023-01-25T09:11:03.532Z,99201.16
2023-01-25T09:13:34.509Z,99191.41
2023-01-25T09:16:06.934Z,99195.56
2023-01-25T09:18:35.665Z,99190.00
2023-01-25T09:21:07.478Z,99187.47
2023-01-25T09:23:44.420Z,99185.56
2023-01-25T09:26:19.961Z,99180.84
2023-01-25T09:28:51.525Z,99183.88
2023-01-25T09:31:22.609Z,99176.91
2023-01-25T09:33:51.354Z,99178.97
2023-01-25T09:36:19.483Z,99179.97
2023-01-25T09:38:47.693Z,99172.78
2023-01-25T09:41:42.648Z,99175.88
2023-01-25T09:44:25.493Z,99164.88
2023-01-25T09:46:54.498Z,99163.91
2023-01-25T09:49:35.149Z,99162.69
2023-01-25T09:52:21.503Z,99153.63
2023-01-25T09:54:50.456Z,99154.66
2023-01-25T09:57:21.315Z,99149.56
2023-01-25T09:59:52.101Z,99146.03
2023-01-25T10:02:37.181Z,99144.66
2023-01-25T10:05:08.801Z,99146.38
2023-01-25T10:07:52.173Z,99150.91
2023-01-25T10:10:21.285Z,99143.16
2023-01-25T10:12:49.454Z,99137.34
2023-01-25T10:15:24.242Z,99122.38
2023-01-25T10:17:58.375Z,99124.84
2023-01-25T10:20:30.530Z,99122.16
2023-01-25T10:23:07.183Z,99130.69
2023-01-25T10:25:37.191Z,99126.63
2023-01-25T10:28:15.869Z,99118.41
2023-01-25T10:30:49.195Z,99122.09
2023-01-25T10:33:18.787Z,99119.44
2023-01-25T10:35:48.619Z,99114.47
2023-01-25T10:38:19.702Z,99113.28
2023-01-25T10:40:50.265Z,99115.53
2023-01-25T10:43:19.504Z,99108.25
2023-01-25T10:45:50.493Z,99106.34
2023-01-25T10:48:20.991Z,99102.41
2023-01-25T10:50:50.982Z,99101.28
2023-01-25T10:53:29.820Z,99102.81
2023-01-25T10:56:03.744Z,99093.47
2023-01-25T10:58:38.134Z,99085.31
2023-01-25T11:01:08.699Z,99078.53
2023-01-25T11:03:38.781Z,99071.41
2023-01-25T11:06:07.641Z,99080.78
2023-01-25T11:08:37.159Z,99072.28
2023-01-25T11:11:26.707Z,99072.59
2023-01-25T11:13:56.247Z,99072.50
2023-01-25T11:16:36.596Z,99072.72
2023-01-25T11:19:04.685Z,99070.25
2023-01-25T11:21:33.300Z,99065.84
2023-01-25T11:24:03.627Z,99061.84
2023-01-25T11:26:31.856Z,99053.69
2023-01-25T11:29:13.941Z,99049.38
2023-01-25T11:31:46.399Z,99047.91
2023-01-25T11:34:15.521Z,99044.69
2023-01-25T11:36:58.379Z,99040.97
2023-01-25T11:39:37.922Z,99034.16
2023-01-25T11:42:13.833Z,99028.25
2023-01-25T11:44:58.871Z,99031.38
2023-01-25T11:47:37.118Z,99016.00
2023-01-25T11:50:09.395Z,99009.91
2023-01-25T11:52:55.290Z,99002.44
2023-01-25T11:55:26.449Z,98986.50
2023-01-25T11:58:05.465Z,98975.84
2023-01-25T12:00:41.987Z,98970.59
2023-01-25T12:03:46.985Z,98962.75
2023-01-25T12:06:17.137Z,98956.38
2023-01-25T12:09:03.483Z,98952.41
2023-01-25T12:11:47.254Z,98950.06
2023-01-25T12:14:20.705Z,98942.66
2023-01-25T12:16:58.519Z,98935.78
2023-01-25T12:19:52.431Z,98937.53
2023-01-25T12:22:40.316Z,98932.34
2023-01-25T12:25:20.903Z,98915.38
2023-01-25T12:27:56.706Z,98914.13
2023-01-25T12:30:29.443Z,98915.06
2023-01-25T12:33:08.894Z,98902.44
2023-01-25T12:35:44.536Z,98900.81
2023-01-25T12:38:15.185Z,98891.69
2023-01-25T12:40:48.298Z,98892.19
2023-01-25T12:43:18.180Z,98881.09
2023-01-25T12:45:46.517Z,98881.97
2023-01-25T12:48:18.284Z,98880.28
2023-01-25T12:50:48.531Z,98872.13
2023-01-25T12:53:20.867Z,98871.66
2023-01-25T12:55:49.350Z,98858.88
2023-01-25T12:58:26.360Z,98853.28
2023-01-25T13:01:01.412Z,98847.66
2023-01-25T13:03:32.025Z,98844.06
2023-01-25T13:06:08.969Z,98842.44
2023-01-25T13:08:43.860Z,98839.75
2023-01-25T13:11:15.323Z,98838.13
2023-01-25T13:13:43.578Z,98831.41
2023-01-25T13:16:35.778Z,98821.25
2023-01-25T13:19:04.139Z,98809.22
2023-01-25T13:21:45.104Z,98814.44
2023-01-25T13:24:25.081Z,98804.09
2023-01-25T13:27:04.400Z,98798.59
2023-01-25T13:30:00.517Z,98797.66
2023-01-25T13:33:00.168Z,98795.75
2023-01-25T13:35:33.843Z,98790.63
2023-01-25T13:38:21.079Z,98781.19
2023-01-25T13:41:03.668Z,98783.53
2023-01-25T13:43:32.335Z,98781.22
2023-01-25T13:46:00.820Z,98779.66
2023-01-25T13:48:28.961Z,98781.78
2023-01-25T13:50:59.361Z,98783.16
2023-01-25T13:53:29.548Z,98779.09
2023-01-25T13:56:00.804Z,98769.97
2023-01-25T13:58:30.571Z,98775.13
2023-01-25T14:00:59.359Z,98770.56
2023-01-25T14:03:29.183Z,98773.34
2023-01-25T14:06:00.228Z,98773.22
2023-01-25T14:08:28.913Z,98778.13
2023-01-25T14:10:57.070Z,98772.31
2023-01-25T14:13:26.764Z,98771.19
2023-01-25T14:15:56.760Z,98766.00
2023-01-25T14:18:31.394Z,98766.22
2023-01-25T14:21:13.761Z,98765.84
2023-01-25T14:23:41.823Z,98763.22
2023-01-25T14:26:19.060Z,98765.56
2023-01-25T14:28:59.415Z,98759.09
2023-01-25T14:31:34.931Z,98755.88
2023-01-25T14:34:05.221Z,98753.66
2023-01-25T14:36:34.981Z,98746.75
2023-01-25T14:39:04.829Z,98745.09
2023-01-25T14:41:34.034Z,98742.81
2023-01-25T14:44:05.211Z,98746.94
2023-01-25T14:46:34.001Z,98747.88
2023-01-25T14:49:25.399Z,98747.56
2023-01-25T14:51:57.571Z,98748.53
2023-01-25T14:54:27.698Z,98747.47
2023-01-25T14:56:56.985Z,98741.97
2023-01-25T14:59:32.561Z,98739.78
2023-01-25T15:02:02.502Z,98745.22
2023-01-25T15:04:30.778Z,98735.41
2023-01-25T15:07:01.195Z,98737.56
2023-01-25T15:09:39.975Z,98744.31
2023-01-25T15:12:29.328Z,98739.09
2023-01-25T15:14:59.392Z,98738.25
2023-01-25T15:17:44.305Z,98730.50
2023-01-25T15:20:38.891Z,98730.03
2023-01-25T15:23:24.716Z,98730.72
2023-01-25T15:25:53.522Z,98721.72
2023-01-25T15:28:21.634Z,98722.97
2023-01-25T15:30:51.676Z,98711.72
2023-01-25T15:33:21.440Z,98712.16
2023-01-25T15:35:50.634Z,98702.84
2023-01-25T15:38:19.033Z,98704.47
2023-01-25T15:40:49.995Z,98699.13
2023-01-25T15:43:18.745Z,98690.84
2023-01-25T15:45:48.144Z,98682.34
2023-01-25T15:48:18.663Z,98680.84
2023-01-25T15:50:51.752Z,98681.41
2023-01-25T15:53:20.786Z,98680.75
2023-01-25T15:55:49.886Z,98676.38
2023-01-25T15:58:23.885Z,98675.88
2023-01-25T16:00:52.053Z,98670.97
2023-01-25T16:03:21.580Z,98668.34
2023-01-25T16:05:51.692Z,98661.94
2023-01-25T16:08:21.443Z,98668.44
2023-01-25T16:10:49.894Z,98667.72
2023-01-25T16:13:18.038Z,98669.66
2023-01-25T16:15:46.374Z,98670.97
2023-01-25T16:18:14.495Z,98668.75
2023-01-25T16:20:44.525Z,98659.38
2023-01-25T16:23:13.154Z,98663.69
2023-01-25T16:25:41.438Z,98665.56
2023-01-25T16:28:11.736Z,98673.31
2023-01-25T16:30:41.379Z,98668.69
2023-01-25T16:33:09.765Z,98678.03
2023-01-25T16:35:38.046Z,98673.19
2023-01-25T16:38:08.354Z,98665.38
2023-01-25T16:40:39.750Z,98672.41
2023-01-25T16:43:08.113Z,98671.97
2023-01-25T16:45:36.594Z,98655.44
2023-01-25T16:48:06.375Z,98651.78
2023-01-25T16:50:35.992Z,98655.31
2023-01-25T16:53:06.204Z,98641.28
2023-01-25T16:55:35.765Z,98642.69
2023-01-25T16:58:03.865Z,98648.50
2023-01-25T17:00:31.925Z,98649.44
2023-01-25T17:03:00.022Z,98647.94
2023-01-25T17:05:33.045Z,98645.91
2023-01-25T17:08:01.467Z,98643.59
2023-01-25T17:10:33.153Z,98638.34
2023-01-25T17:13:03.252Z,98636.06
2023-01-25T17:15:31.493Z,98634.34
2023-01-25T17:17:59.579Z,98634.47
2023-01-25T17:20:28.525Z,98631.44
2023-01-25T17:22:56.451Z,98629.31
2023-01-25T17:25:30.533Z,98639.34
2023-01-25T17:27:58.537Z,98636.91
2023-01-25T17:30:28.022Z,98630.06
2023-01-25T17:32:56.065Z,98629.31
2023-01-25T17:35:24.128Z,98639.66
2023-01-25T17:37:55.021Z,98640.38
2023-01-25T17:40:23.084Z,98628.09
2023-01-25T17:42:52.809Z,98622.91
2023-01-25T17:45:21.698Z,98621.31
2023-01-25T17:47:51.149Z,98613.03
2023-01-25T17:50:20.134Z,98610.66
2023-01-25T17:52:51.690Z,98601.06
2023-01-25T17:55:19.819Z,98605.88
2023-01-25T17:57:51.268Z,98604.06
2023-01-25T18:00:20.350Z,98599.81
2023-01-25T18:02:48.327Z,98587.56
2023-01-25T18:05:18.466Z,98591.75
2023-01-25T18:07:47.879Z,98603.28
2023-01-25T18:10:18.066Z,98605.56
2023-01-25T18:13:03.579Z,98614.75
2023-01-25T18:15:33.124Z,98604.72
2023-01-25T18:18:01.855Z,98601.78
2023-01-25T18:20:31.949Z,98605.78
2023-01-25T18:22:59.940Z,98605.28
2023-01-25T18:25:32.763Z,98606.69
2023-01-25T18:28:00.821Z,98607.69
2023-01-25T18:30:32.307Z,98603.56
2023-01-25T18:33:01.549Z,98597.72
2023-01-25T18:35:31.974Z,98599.25
2023-01-25T18:38:00.143Z,98604.41
2023-01-25T18:40:29.929Z,98594.63
2023-01-25T18:42:59.408Z,98601.25
2023-01-25T18:45:27.443Z,98588.63
2023-01-25T18:47:55.495Z,98583.66
2023-01-25T18:50:23.846Z,98579.88
2023-01-25T18:52:54.404Z,98582.66
2023-01-25T18:55:22.566Z,98577.00
2023-01-25T18:57:50.615Z,98585.50
2023-01-25T19:00:19.371Z,98573.81
2023-01-25T19:02:47.468Z,98567.16
2023-01-25T19:05:18.641Z,98564.72
2023-01-25T19:07:46.722Z,98559.41
2023-01-25T19:10:16.341Z,98558.75
2023-01-25T19:12:44.329Z,98558.00
2023-01-25T19:15:13.118Z,98553.06
2023-01-25T19:17:41.142Z,98547.03
2023-01-25T19:20:10.711Z,98545.72
2023-01-25T19:22:40.548Z,98547.78
2023-01-25T19:25:10.056Z,98544.69
2023-01-25T19:27:39.626Z,98542.91
2023-01-25T19:30:08.990Z,98529.78
2023-01-25T19:32:37.223Z,98516.19
2023-01-25T19:35:08.309Z,98523.41
2023-01-25T19:37:36.717Z,98513.25
2023-01-25T19:40:08.413Z,98508.22
2023-01-25T19:42:36.630Z,98509.66
2023-01-25T19:45:14.801Z,98511.81
2023-01-25T19:47:46.189Z,98500.78
2023-01-25T19:50:14.641Z,98503.13
2023-01-25T19:52:43.251Z,98491.53
2023-01-25T19:55:11.560Z,98486.63
2023-01-25T19:57:39.830Z,98478.81
2023-01-25T20:00:11.620Z,98480.97
2023-01-25T20:02:39.679Z,98467.53
2023-01-25T20:05:08.636Z,98461.06
2023-01-25T20:07:36.937Z,98455.72
2023-01-25T20:10:06.083Z,98451.25
2023-01-25T20:12:34.643Z,98449.91
2023-01-25T20:15:02.682Z,98456.81
2023-01-25T20:17:32.461Z,98440.75
2023-01-25T20:20:00.523Z,98449.47
2023-01-25T20:22:28.639Z,98449.28
2023-01-25T20:24:57.067Z,98438.38
2023-01-25T20:27:25.196Z,98436.22
2023-01-25T20:29:53.884Z,98435.34
2023-01-25T20:32:32.495Z,98438.13
2023-01-25T20:35:06.079Z,98447.38
2023-01-25T20:37:34.255Z,98446.94
2023-01-25T20:40:02.325Z,98456.81
2023-01-25T20:42:30.362Z,98465.03
2023-01-25T20:44:59.455Z,98452.03
2023-01-25T20:47:27.446Z,98449.56
2023-01-25T20:49:55.593Z,98442.63
2023-01-25T20:52:25.004Z,98444.69
2023-01-25T20:54:54.055Z,98435.59
2023-01-25T20:57:22.091Z,98424.78
2023-01-25T20:59:50.103Z,98441.00
2023-01-25T21:02:18.335Z,98435.75
2023-01-25T21:04:46.679Z,98431.84
2023-01-25T21:07:14.709Z,98421.28
2023-01-25T21:09:45.408Z,98429.81
2023-01-25T21:12:13.882Z,98436.53
2023-01-25T21:14:44.713Z,98430.13
2023-01-25T21:17:14.313Z,98422.69
2023-01-25T21:19:42.462Z,98425.91
2023-01-25T21:22:10.505Z,98422.41
2023-01-25T21:24:39.812Z,98410.31
2023-01-25T21:27:10.449Z,98410.34
2023-01-25T21:29:38.603Z,98397.56
2023-01-25T21:32:06.799Z,98396.09
2023-01-25T21:34:34.835Z,98399.47
2023-01-25T21:37:03.024Z,98392.31
2023-01-25T21:39:31.556Z,98392.69
2023-01-25T21:41:59.566Z,98387.63
2023-01-25T21:44:47.630Z,98386.66
2023-01-25T21:47:29.382Z,98381.06
2023-01-25T21:50:16.003Z,98386.66
2023-01-25T21:52:44.018Z,98393.81
2023-01-25T21:55:12.561Z,98398.75
2023-01-25T21:57:49.369Z,98393.25
2023-01-25T22:00:20.680Z,98384.66
2023-01-25T22:02:54.676Z,98378.31
2023-01-25T22:05:22.649Z,98376.25
2023-01-25T22:07:50.892Z,98383.94
2023-01-25T22:10:19.274Z,98394.00
2023-01-25T22:12:50.622Z,98394.91
2023-01-25T22:15:20.138Z,98409.66
2023-01-25T22:17:48.131Z,98413.25
2023-01-25T22:20:16.762Z,98411.34
2023-01-25T22:22:44.829Z,98415.47
2023-01-25T22:25:12.923Z,98402.28
2023-01-25T22:27:47.326Z,98410.28
2023-01-25T22:30:17.511Z,98408.16
2023-01-25T22:32:46.934Z,98408.84
2023-01-25T22:35:15.072Z,98400.41
2023-01-25T22:37:43.458Z,98397.25
2023-01-25T22:40:13.037Z,98390.63
2023-01-25T22:42:41.199Z,98388.47
2023-01-25T22:45:10.401Z,98388.41
2023-01-25T22:47:38.352Z,98398.13
2023-01-25T22:50:08.959Z,98391.31
2023-01-25T22:52:37.299Z,98392.69
2023-01-25T22:55:06.322Z,98387.25
2023-01-25T22:57:34.729Z,98394.00
2023-01-25T23:00:03.144Z,98381.75
2023-01-25T23:02:31.151Z,98376.47
2023-01-25T23:04:59.714Z,98367.31
2023-01-25T23:07:29.207Z,98371.66
2023-01-25T23:09:57.235Z,98367.69
2023-01-25T23:12:25.313Z,98371.09
2023-01-25T23:14:54.122Z,98370.88
2023-01-25T23:17:40.292Z,98353.38
2023-01-25T23:20:09.636Z,98350.25
2023-01-25T23:22:39.231Z,98349.78
2023-01-25T23:25:08.970Z,98353.41
2023-01-25T23:27:36.997Z,98356.34
2023-01-25T23:30:07.360Z,98344.31
2023-01-25T23:32:35.407Z,98343.97
2023-01-25T23:35:03.496Z,98334.03
2023-01-25T23:37:32.843Z,98347.16
2023-01-25T23:40:02.342Z,98340.25
2023-01-25T23:42:30.852Z,98326.84
2023-01-25T23:44:58.900Z,98332.41
2023-01-25T23:47:27.393Z,98332.84
2023-01-25T23:49:56.470Z,98322.59
2023-01-25T23:52:24.527Z,98317.91
2023-01-25T23:54:52.628Z,98321.09
2023-01-25T23:57:22.039Z,98326.41
2023-01-25T23:59:50.510Z,98323.19
